Portada
METAR-TAF:

METAR-TAF

Aeropuertos :

Aeropuerto Internacional Gobernador Francisco Gabrielli

Mendoza, Argentina

latitud: 32-50S, longitud: 068-47W, altitud: 705 m

Observación

El informe se hizo hace 43 minutos, a las 23:00 UTC
Viento 3 kt del sureste
Temperatura 32°C
Humedad 21%
Presión 1006 hPa
Visibilidad 10 km o más
sin nubes por debajo de 1500 m y sin presencia de cumulonimbus.

METAR: SAME 132300Z 14003KT CAVOK 32/07 Q1006

Hora: 20:43 (23:43 UTC)

Pronóstico

El informe se hizo hace 6 horas y 43 minutos, a las 17:00 UTC
Pronóstico válido del 13 a las 18 UTC al 14 a las 18 UTC
Viento 10 kt del noreste
Visibilidad 10 km o más
Escasas nubes a una altura de 4000 ft

TAF: SAME 131700Z 1318/1418 05010KT 9999 FEW040 TX33/1320Z TN19/1410Z

Observaciones y pronósticos meteorológicos de más de 4000 aeropuertos (mensajes METAR y TAF).

Los puntos amarillos y rojos representan las estaciones disponibles.

Ponga el ratón en el punto deseado para ver el nombre de la estación.

Haga clic para ver las observaciones y los pronósticos meteorológicos.

Para cambiar el mapa : haga clic en los botones verdes con una cruz de color negro para hacer un zoom, en el botón verde con un guión para alejar o en las flechas verdes para mapas adyacentes.


METAR-TAF: